Time;durP1;ratioP1;P1;durP2;ratioP2;P2;SDS_P1;SDS_P2;PMS_P1;PMS_P2;Temp;Humidity;BMP_temperature;BMP_pressure;BME280_temperature;BME280_humidity;BME280_pressure;Samples;Min_cycle;Max_cycle;Signal;HPM_P1;HPM_P2
2021/04/19 00:03:20;;;;;;;18.90;15.43;;;;;;;11.13;61.27;102118.28;6280764;28;20227;-56
2021/04/19 00:06:42;;;;;;;18.10;14.87;;;;;;;11.10;61.59;102120.84;6289894;28;20588;-55
2021/04/19 00:10:03;;;;;;;18.80;15.27;;;;;;;10.79;63.27;102120.53;6269378;28;20231;-56
2021/04/19 00:13:24;;;;;;;17.30;13.77;;;;;;;10.85;62.76;102114.50;6280940;28;20224;-54
2021/04/19 00:16:44;;;;;;;16.70;14.33;;;;;;;10.91;62.39;102111.09;6272822;28;20235;-54
2021/04/19 00:20:07;;;;;;;20.23;16.27;;;;;;;10.96;61.90;102112.88;6281067;28;20243;-54
2021/04/19 00:23:28;;;;;;;19.70;15.03;;;;;;;11.06;61.98;102118.19;6298451;28;20226;-51
2021/04/19 00:26:49;;;;;;;21.93;16.47;;;;;;;11.31;60.74;102117.56;6270049;28;20679;-53
2021/04/19 00:30:10;;;;;;;18.73;16.63;;;;;;;11.10;61.66;102120.84;6278899;28;20234;-50
2021/04/19 00:33:31;;;;;;;26.53;17.83;;;;;;;11.01;62.17;102131.16;6275803;28;20234;-53
2021/04/19 00:36:52;;;;;;;22.00;18.20;;;;;;;10.93;61.99;102127.63;6271941;28;20554;-56
2021/04/19 00:40:15;;;;;;;19.23;17.03;;;;;;;10.79;62.74;102136.16;6270217;28;20231;-51
2021/04/19 00:43:37;;;;;;;24.53;19.90;;;;;;;10.78;62.61;102125.75;6280077;28;20232;-53
2021/04/19 00:46:58;;;;;;;21.90;18.47;;;;;;;10.95;62.47;102125.91;6273020;28;20222;-50
2021/04/19 00:50:21;;;;;;;20.50;18.30;;;;;;;11.04;62.03;102137.28;6266372;28;20792;-53
2021/04/19 00:53:41;;;;;;;20.60;16.07;;;;;;;10.71;63.29;102126.53;6272891;28;20320;-53
2021/04/19 00:57:02;;;;;;;21.97;18.30;;;;;;;10.87;62.63;102123.22;6284329;28;20227;-54
2021/04/19 01:00:26;;;;;;;23.70;19.43;;;;;;;10.99;62.19;102118.16;6286858;28;20224;-56
2021/04/19 01:03:46;;;;;;;21.50;19.17;;;;;;;10.87;62.76;102127.56;6276873;28;20228;-55
2021/04/19 01:07:07;;;;;;;23.33;18.47;;;;;;;10.97;62.18;102126.78;6278626;28;20231;-55
2021/04/19 01:10:27;;;;;;;26.63;20.30;;;;;;;10.78;62.72;102124.00;6268352;28;20250;-52
2021/04/19 01:13:50;;;;;;;20.47;17.30;;;;;;;10.72;62.69;102128.25;6275001;28;20219;-54
2021/04/19 01:17:11;;;;;;;24.73;20.37;;;;;;;10.77;62.41;102130.06;6278761;28;20318;-55
2021/04/19 01:20:37;;;;;;;21.23;18.63;;;;;;;10.58;63.28;102131.56;6278872;28;20728;-55
2021/04/19 01:23:58;;;;;;;22.97;18.70;;;;;;;10.75;63.27;102130.91;6282620;28;20248;-54
2021/04/19 01:27:19;;;;;;;21.73;18.63;;;;;;;10.58;63.59;102131.56;6284043;28;20325;-52
2021/04/19 01:30:42;;;;;;;21.27;18.80;;;;;;;10.56;63.90;102138.50;6294240;28;20273;-51
2021/04/19 01:34:03;;;;;;;21.97;19.67;;;;;;;10.48;64.12;102128.84;6278673;28;20228;-54
2021/04/19 01:37:25;;;;;;;27.47;19.77;;;;;;;10.27;64.97;102129.41;6276057;28;20227;-53
2021/04/19 01:40:46;;;;;;;21.90;16.47;;;;;;;10.31;64.42;102134.69;6291249;28;20235;-55
2021/04/19 01:44:07;;;;;;;22.73;18.50;;;;;;;10.20;65.06;102133.69;6287319;28;20793;-52
2021/04/19 01:47:28;;;;;;;21.50;18.50;;;;;;;10.39;64.85;102140.91;6265366;28;20680;-52
2021/04/19 01:50:51;;;;;;;19.80;17.80;;;;;;;10.31;65.03;102146.84;6288209;28;20247;-53
2021/04/19 01:54:13;;;;;;;20.30;18.10;;;;;;;10.62;63.92;102148.13;6283041;28;20242;-54
2021/04/19 01:57:38;;;;;;;27.37;21.47;;;;;;;10.68;63.87;102142.09;6285990;28;20227;-55
2021/04/19 02:00:59;;;;;;;25.40;21.57;;;;;;;10.68;63.61;102136.91;6289636;28;20232;-52
2021/04/19 02:04:35;;;;;;;24.63;21.07;;;;;;;10.93;62.71;102141.50;6283673;28;20232;-51
2021/04/19 02:08:08;;;;;;;23.30;18.60;;;;;;;10.74;63.62;102140.47;6269686;28;20496;-52
2021/04/19 02:11:42;;;;;;;22.30;19.83;;;;;;;10.53;64.44;102145.41;6275111;28;20218;-53
2021/04/19 02:15:07;;;;;;;25.73;21.43;;;;;;;10.79;63.29;102136.16;6275297;28;20228;-49
2021/04/19 02:18:42;;;;;;;23.97;20.97;;;;;;;10.85;62.78;102137.97;6284836;28;20235;-56
2021/04/19 02:22:09;;;;;;;22.60;20.20;;;;;;;10.76;63.44;102140.44;6292652;28;20231;-50
2021/04/19 02:25:34;;;;;;;22.70;19.93;;;;;;;10.57;64.22;102144.59;6273778;28;20501;-51
2021/04/19 02:29:02;;;;;;;24.63;21.07;;;;;;;10.53;64.25;102145.41;6284407;28;20591;-54
2021/04/19 02:32:26;;;;;;;27.30;22.93;;;;;;;10.46;64.37;102143.59;6273177;28;20544;-51
2021/04/19 02:35:48;;;;;;;23.27;20.77;;;;;;;10.59;64.06;102146.34;6296966;28;20306;-48
2021/04/19 02:39:09;;;;;;;29.70;21.73;;;;;;;10.58;64.35;102136.78;6284622;28;20231;-53
2021/04/19 02:42:37;;;;;;;26.40;23.53;;;;;;;10.75;63.68;102139.59;6280382;28;20238;-52
2021/04/19 02:46:01;;;;;;;25.33;20.07;;;;;;;10.34;65.14;102141.69;6293411;28;20234;-55
2021/04/19 02:49:26;;;;;;;28.90;24.40;;;;;;;9.77;67.09;102138.25;6291986;28;20230;-52
2021/04/19 02:52:48;;;;;;;28.40;23.73;;;;;;;10.23;65.62;102138.91;6291451;28;20538;-53
2021/04/19 02:56:09;;;;;;;27.40;24.57;;;;;;;10.44;64.50;102131.41;6288958;28;20905;-52
2021/04/19 02:59:31;;;;;;;26.03;21.40;;;;;;;10.37;64.84;102141.72;6296316;28;20269;-51
2021/04/19 03:02:55;;;;;;;33.47;23.17;;;;;;;10.25;64.58;102134.59;6283994;28;20569;-52
2021/04/19 03:06:17;;;;;;;27.90;22.43;;;;;;;10.44;64.21;102139.22;6286331;28;20235;-51
2021/04/19 03:09:43;;;;;;;32.93;26.03;;;;;;;10.30;65.13;102146.00;6290592;28;20659;-54
2021/04/19 03:13:05;;;;;;;37.13;28.80;;;;;;;10.42;65.52;102140.94;6294392;28;20318;-54
2021/04/19 03:16:29;;;;;;;30.00;26.47;;;;;;;10.51;65.16;102142.78;6277427;28;20235;-51
2021/04/19 03:20:00;;;;;;;23.87;21.27;;;;;;;10.51;63.59;102134.97;6273791;28;20219;-48
2021/04/19 03:23:32;;;;;;;27.03;24.17;;;;;;;10.36;64.13;102138.25;6294739;28;20250;-50
2021/04/19 03:26:53;;;;;;;27.17;23.10;;;;;;;10.14;64.52;102130.97;6281497;28;20262;-52
2021/04/19 03:30:18;;;;;;;25.80;21.53;;;;;;;9.96;65.57;102132.47;6279923;28;20230;-52
2021/04/19 03:33:46;;;;;;;25.20;22.50;;;;;;;10.10;65.06;102137.00;6269499;28;20223;-55
2021/04/19 03:37:13;;;;;;;27.73;23.50;;;;;;;9.95;65.84;102128.13;6278146;28;20238;-49
2021/04/19 03:40:38;;;;;;;26.23;23.03;;;;;;;10.01;66.04;102123.00;6279400;28;20320;-50
2021/04/19 03:44:05;;;;;;;25.60;21.77;;;;;;;10.11;65.15;102133.53;6278909;28;20231;-53
2021/04/19 03:47:30;;;;;;;27.03;22.43;;;;;;;10.28;65.11;102141.59;6271334;28;20653;-51
2021/04/19 03:51:04;;;;;;;29.90;25.43;;;;;;;10.15;65.61;102148.34;6278833;28;20251;-51
2021/04/19 03:54:30;;;;;;;27.97;23.30;;;;;;;10.33;64.46;102140.84;6281952;28;20223;-48
2021/04/19 03:57:53;;;;;;;26.83;22.37;;;;;;;9.94;65.97;102141.97;6284872;28;20227;-49
2021/04/19 04:01:23;;;;;;;26.40;22.57;;;;;;;10.00;65.62;102142.09;6280062;28;20231;-51
2021/04/19 04:04:51;;;;;;;28.23;25.20;;;;;;;10.08;65.23;102146.50;6278400;28;20325;-54
2021/04/19 04:08:19;;;;;;;27.07;24.17;;;;;;;9.85;65.76;102144.47;6281963;28;20219;-53
2021/04/19 04:11:43;;;;;;;25.03;20.70;;;;;;;9.78;66.53;102130.47;6268717;28;20564;-54
2021/04/19 04:15:18;;;;;;;23.83;21.33;;;;;;;9.99;65.82;102126.44;6289774;28;20223;-53
2021/04/19 04:18:41;;;;;;;23.63;21.00;;;;;;;9.88;65.46;102128.88;6295280;28;20310;-52
2021/04/19 04:22:04;;;;;;;23.37;20.90;;;;;;;10.07;65.16;102129.16;6294435;28;20234;-54
2021/04/19 04:25:33;;;;;;;24.53;21.93;;;;;;;10.09;65.16;102137.84;6271907;28;20227;-53
2021/04/19 04:28:55;;;;;;;26.90;23.60;;;;;;;10.03;65.47;102138.66;6281308;28;20231;-52
2021/04/19 04:32:23;;;;;;;23.53;21.00;;;;;;;10.08;65.36;102137.00;6260820;28;20309;-54
2021/04/19 04:35:52;;;;;;;22.70;19.97;;;;;;;9.73;66.53;102141.66;6279519;28;20306;-51
2021/04/19 04:39:25;;;;;;;23.83;21.27;;;;;;;9.94;65.37;102141.97;6294756;28;20238;-54
2021/04/19 04:42:50;;;;;;;27.80;24.80;;;;;;;9.90;65.47;102137.56;6285547;28;20649;-51
2021/04/19 04:46:18;;;;;;;25.67;20.73;;;;;;;9.83;66.42;102152.25;6279232;28;20231;-53
2021/04/19 04:49:47;;;;;;;25.87;23.17;;;;;;;10.15;65.42;102150.97;6283735;28;20235;-52
2021/04/19 04:53:13;;;;;;;25.63;22.87;;;;;;;10.01;65.91;102145.56;6280491;28;20222;-54
2021/04/19 04:56:36;;;;;;;26.00;23.20;;;;;;;9.91;66.13;102144.56;6276602;28;20232;-54
2021/04/19 04:59:59;;;;;;;25.20;21.37;;;;;;;9.64;66.72;102147.59;6288179;28;20230;-51
2021/04/19 05:03:21;;;;;;;28.30;23.47;;;;;;;9.45;67.52;102149.00;6285416;28;20278;-54
2021/04/19 05:06:42;;;;;;;27.20;23.03;;;;;;;9.68;66.82;102154.59;6290129;28;20222;-49
2021/04/19 05:10:04;;;;;;;24.73;21.87;;;;;;;9.85;66.72;102152.28;6285103;28;20231;-52
2021/04/19 05:13:25;;;;;;;27.63;23.10;;;;;;;10.14;65.20;102149.19;6291442;28;21743;-49
2021/04/19 05:16:45;;;;;;;25.43;22.93;;;;;;;9.90;66.21;102148.00;6287031;28;20231;-53
2021/04/19 05:20:08;;;;;;;26.20;22.03;;;;;;;10.00;65.42;102152.50;6281592;28;20629;-50
2021/04/19 05:23:28;;;;;;;24.03;21.60;;;;;;;10.24;64.84;102156.28;6268108;28;20227;-54
2021/04/19 05:26:49;;;;;;;22.63;20.33;;;;;;;10.07;64.69;102157.78;6277130;28;20231;-50
2021/04/19 05:30:12;;;;;;;19.87;18.00;;;;;;;9.76;65.09;102167.72;6284966;28;20231;-52
2021/04/19 05:33:32;;;;;;;22.80;20.07;;;;;;;9.85;65.05;102167.88;6277500;28;20247;-49
2021/04/19 05:36:54;;;;;;;22.17;19.97;;;;;;;9.51;65.77;102167.31;6289564;28;20271;-51
2021/04/19 05:40:16;;;;;;;21.87;19.67;;;;;;;9.71;65.45;102161.56;6284743;28;20223;-54
2021/04/19 05:43:37;;;;;;;24.97;22.47;;;;;;;9.51;66.51;102172.50;6294820;28;20239;-55
2021/04/19 05:46:58;;;;;;;24.90;22.47;;;;;;;9.42;66.93;102170.66;6283089;28;20231;-53
2021/04/19 05:50:20;;;;;;;27.73;24.90;;;;;;;9.40;67.07;102169.75;6283087;28;20231;-56
2021/04/19 05:53:42;;;;;;;69.43;30.77;;;;;;;9.45;67.13;102173.28;6276064;28;20692;-52
2021/04/19 05:57:16;;;;;;;25.23;22.20;;;;;;;9.83;65.69;102174.78;6293136;28;20238;-55
2021/04/19 06:00:43;;;;;;;26.77;24.07;;;;;;;9.89;65.32;102187.88;6285987;28;20231;-50
2021/04/19 06:04:10;;;;;;;27.40;21.97;;;;;;;10.05;64.96;102186.38;6277726;28;20246;-53
2021/04/19 06:07:40;;;;;;;23.93;21.40;;;;;;;10.26;64.47;102178.03;6271460;28;20251;-50
2021/04/19 06:11:25;;;;;;;21.27;19.03;;;;;;;9.80;64.69;102179.94;6257222;28;20610;-53
2021/04/19 06:15:08;;;;;;;21.63;19.33;;;;;;;9.95;64.70;102187.09;6274439;28;20247;-51
2021/04/19 06:18:31;;;;;;;21.43;19.23;;;;;;;9.79;65.35;102185.97;6285837;28;20222;-51
2021/04/19 06:21:52;;;;;;;21.17;19.03;;;;;;;10.04;64.20;102180.31;6267907;28;20235;-52
2021/04/19 06:25:15;;;;;;;20.63;18.70;;;;;;;9.90;65.02;102187.03;6270299;28;20272;-52
2021/04/19 06:28:36;;;;;;;23.13;20.77;;;;;;;10.27;63.78;102190.16;6271953;28;20232;-53
2021/04/19 06:31:58;;;;;;;21.83;19.63;;;;;;;10.33;63.97;102187.72;6290748;28;20604;-51
2021/04/19 06:35:20;;;;;;;20.53;18.47;;;;;;;10.40;63.47;102194.72;6276489;28;20617;-52
2021/04/19 06:38:40;;;;;;;21.47;19.27;;;;;;;10.43;62.96;102197.38;6277833;28;20658;-55
2021/04/19 06:42:02;;;;;;;24.07;21.73;;;;;;;10.16;64.03;102199.56;6271106;28;20231;-54
2021/04/19 06:45:24;;;;;;;23.80;21.37;;;;;;;9.73;65.65;102204.09;6283552;28;20591;-51
2021/04/19 06:48:49;;;;;;;22.57;20.17;;;;;;;10.08;65.49;102195.97;6275792;28;20261;-54
2021/04/19 06:52:11;;;;;;;24.77;22.17;;;;;;;10.35;64.04;102191.22;6281632;28;20235;-54
2021/04/19 06:55:31;;;;;;;22.13;19.80;;;;;;;10.38;64.11;102193.84;6279490;28;20322;-54
2021/04/19 06:58:54;;;;;;;22.80;20.30;;;;;;;10.39;63.92;102193.00;6268260;28;20257;-53
2021/04/19 07:02:21;;;;;;;20.27;18.10;;;;;;;10.20;64.50;102191.81;6278096;28;20235;-56
2021/04/19 07:05:42;;;;;;;21.20;19.03;;;;;;;10.62;63.33;102195.00;6280921;28;20391;-54
2021/04/19 07:09:08;;;;;;;23.67;19.77;;;;;;;10.15;64.77;102190.00;6273124;28;20349;-58
2021/04/19 07:12:33;;;;;;;20.83;18.73;;;;;;;10.30;64.54;102200.66;6277763;28;20227;-52
2021/04/19 07:15:54;;;;;;;20.37;18.17;;;;;;;10.33;64.30;102205.03;6279968;28;20219;-56
2021/04/19 07:19:16;;;;;;;19.60;17.60;;;;;;;10.40;63.75;102197.34;6281815;28;20231;-55
2021/04/19 07:22:38;;;;;;;19.83;17.73;;;;;;;10.88;63.04;102197.06;6286065;28;20231;-50
2021/04/19 07:25:59;;;;;;;15.67;14.17;;;;;;;11.30;62.38;102195.78;6272059;28;20223;-56
2021/04/19 07:29:19;;;;;;;17.27;15.60;;;;;;;11.86;60.66;102187.56;6284296;28;20718;-57
2021/04/19 07:32:40;;;;;;;15.27;13.77;;;;;;;12.01;59.96;102177.25;6273632;28;20608;-53
2021/04/19 07:36:26;;;;;;;18.70;16.80;;;;;;;11.76;59.94;102178.78;6281931;28;20223;-52
2021/04/19 07:39:47;;;;;;;20.47;18.37;;;;;;;11.63;60.33;102171.72;6270702;28;20227;-55
2021/04/19 07:43:12;;;;;;;16.47;14.70;;;;;;;11.46;60.74;102175.91;6276472;28;20648;-47
2021/04/19 07:46:33;;;;;;;18.50;16.70;;;;;;;11.49;60.82;102189.88;6290437;28;20628;-54
2021/04/19 07:50:16;;;;;;;17.43;15.60;;;;;;;11.57;60.86;102180.41;6265528;28;20266;-52
2021/04/19 07:53:37;;;;;;;19.20;17.13;;;;;;;11.67;60.36;102181.34;6266109;28;20235;-54
2021/04/19 07:57:07;;;;;;;18.47;16.57;;;;;;;11.16;62.15;102183.47;6274422;28;20604;-55
2021/04/19 08:00:31;;;;;;;21.60;19.33;;;;;;;11.26;62.03;102180.97;6275095;28;20236;-52
2021/04/19 08:04:05;;;;;;;19.70;17.60;;;;;;;11.62;61.21;102178.69;6276017;28;20247;-53
2021/04/19 08:07:27;;;;;;;19.97;17.87;;;;;;;11.84;61.14;102178.84;6274558;28;20238;-56
2021/04/19 08:10:49;;;;;;;18.77;16.33;;;;;;;12.24;59.58;102179.16;6274884;28;20764;-55
2021/04/19 08:14:10;;;;;;;19.93;17.77;;;;;;;11.90;60.79;102186.75;6274234;28;20263;-57
2021/04/19 08:17:32;;;;;;;18.93;16.93;;;;;;;11.90;60.24;102173.69;6276034;28;20227;-55
2021/04/19 08:20:57;;;;;;;19.27;17.37;;;;;;;11.75;61.00;102173.59;6277523;28;20224;-52
2021/04/19 08:24:18;;;;;;;19.37;17.27;;;;;;;12.60;59.37;102180.19;6275270;28;20679;-50
2021/04/19 08:27:40;;;;;;;18.53;16.60;;;;;;;12.53;59.30;102170.59;6271251;28;20223;-53
2021/04/19 08:31:02;;;;;;;20.10;18.07;;;;;;;12.73;58.55;102176.75;6273000;28;20231;-55
2021/04/19 08:34:23;;;;;;;21.13;18.93;;;;;;;13.12;57.69;102175.13;6277649;28;20239;-53
2021/04/19 08:37:44;;;;;;;18.83;17.03;;;;;;;13.23;57.30;102174.28;6280357;28;20231;-56
2021/04/19 08:41:06;;;;;;;19.20;17.17;;;;;;;13.53;57.04;102169.13;6280705;28;21078;-58
2021/04/19 08:44:31;;;;;;;23.90;19.37;;;;;;;12.99;58.09;102170.75;6280420;28;20231;-60
2021/04/19 08:47:52;;;;;;;21.20;18.93;;;;;;;13.68;56.79;102173.47;6246448;28;20549;-53
2021/04/19 08:51:13;;;;;;;22.00;19.80;;;;;;;13.99;55.71;102178.66;6246974;28;20236;-51
2021/04/19 08:54:33;;;;;;;20.17;17.60;;;;;;;14.10;54.89;102181.28;6247855;28;20760;-54
2021/04/19 08:57:59;;;;;;;18.90;16.70;;;;;;;13.73;56.03;102187.44;6235793;28;20315;-53
2021/04/19 09:01:21;;;;;;;19.83;17.93;;;;;;;13.34;56.75;102185.69;6234496;28;20228;-53
2021/04/19 09:05:00;;;;;;;16.53;14.80;;;;;;;14.11;55.18;102183.91;6248986;28;20237;-54
2021/04/19 09:08:22;;;;;;;19.97;17.93;;;;;;;14.17;54.95;102185.63;6245000;28;20224;-53
2021/04/19 09:11:43;;;;;;;19.97;17.90;;;;;;;14.03;54.96;102185.66;6250699;28;20247;-55
2021/04/19 09:15:15;;;;;;;20.27;18.07;;;;;;;14.06;55.22;102190.03;6249157;28;20228;-55
2021/04/19 09:18:36;;;;;;;20.50;18.47;;;;;;;14.65;54.54;102191.63;6244419;28;20228;-54
2021/04/19 09:22:08;;;;;;;17.30;15.57;;;;;;;14.96;54.03;102191.47;6249322;28;20512;-54
2021/04/19 09:25:42;;;;;;;19.40;17.00;;;;;;;15.31;52.15;102190.38;6241770;28;20244;-55
2021/04/19 09:29:02;;;;;;;18.90;17.03;;;;;;;15.16;52.55;102184.38;6254236;28;20246;-55
2021/04/19 09:32:24;;;;;;;20.87;18.80;;;;;;;15.46;51.76;102192.03;6253283;28;20232;-57
2021/04/19 09:35:48;;;;;;;18.23;16.53;;;;;;;16.08;50.01;102187.13;6262234;28;20223;-58
2021/04/19 09:39:09;;;;;;;17.50;15.80;;;;;;;16.28;49.87;102179.91;6274103;28;20310;-54
2021/04/19 09:43:05;;;;;;;19.40;17.50;;;;;;;17.00;48.90;102175.53;6276144;28;20239;-56
2021/04/19 09:46:29;;;;;;;20.20;18.20;;;;;;;16.94;48.31;102180.88;6278540;28;20238;-55
2021/04/19 09:49:50;;;;;;;18.97;16.80;;;;;;;16.50;48.96;102179.66;6279617;28;20223;-54
2021/04/19 09:53:11;;;;;;;18.97;17.10;;;;;;;15.87;50.53;102173.31;6282721;28;20223;-55
2021/04/19 09:56:35;;;;;;;19.50;17.60;;;;;;;16.60;49.21;102180.44;6274330;28;20232;-55
2021/04/19 09:59:55;;;;;;;20.47;18.37;;;;;;;16.42;48.82;102165.72;6268885;28;20495;-57
2021/04/19 10:03:18;;;;;;;19.87;17.87;;;;;;;17.02;47.97;102168.50;6285009;28;20560;-56
2021/04/19 10:06:43;;;;;;;19.27;17.43;;;;;;;17.45;46.86;102159.06;6282702;28;20234;-55
2021/04/19 10:10:07;;;;;;;20.90;17.63;;;;;;;17.20;47.17;102169.09;6274729;28;20219;-55
2021/04/19 10:13:29;;;;;;;19.03;17.33;;;;;;;17.35;47.36;102165.34;6275147;28;20251;-54
2021/04/19 10:16:51;;;;;;;18.43;16.63;;;;;;;17.62;46.76;102158.75;6282368;28;20223;-56
2021/04/19 10:20:19;;;;;;;18.03;16.30;;;;;;;18.62;45.36;102157.75;6271508;28;20520;-53
2021/04/19 10:23:42;;;;;;;17.60;15.77;;;;;;;18.68;44.16;102154.97;6283035;28;20234;-57
2021/04/19 10:27:04;;;;;;;16.73;15.03;;;;;;;18.26;45.10;102154.97;6266034;28;20224;-56
2021/04/19 10:30:26;;;;;;;17.53;15.93;;;;;;;18.19;44.88;102150.72;6273165;28;20220;-56
2021/04/19 10:33:48;;;;;;;17.70;16.00;;;;;;;18.44;45.14;102144.94;6288297;28;20604;-54
2021/04/19 10:37:09;;;;;;;17.67;15.97;;;;;;;18.85;44.41;102143.22;6274122;28;20227;-56
2021/04/19 10:40:29;;;;;;;17.67;15.87;;;;;;;18.88;43.73;102136.09;6274870;28;20227;-55
2021/04/19 10:43:53;;;;;;;16.80;15.10;;;;;;;19.84;43.26;102133.75;6276661;28;20219;-56
2021/04/19 10:47:26;;;;;;;17.73;16.00;;;;;;;19.63;43.41;102124.59;6274164;28;20223;-55
2021/04/19 10:50:47;;;;;;;16.35;14.85;;;;;;;19.16;42.63;102127.50;6268334;28;20231;-52
2021/04/19 10:54:10;;;;;;;14.05;12.85;;;;;;;19.38;43.55;102129.63;6280839;28;22965;-55
2021/04/19 10:57:30;;;;;;;14.73;13.38;;;;;;;19.44;42.96;102130.34;6281624;28;20223;-57
2021/04/19 11:00:52;;;;;;;13.57;12.37;;;;;;;20.04;42.04;102119.97;6277495;28;20231;-58
2021/04/19 11:04:13;;;;;;;14.00;12.75;;;;;;;20.23;41.79;102125.63;6280569;28;20247;-56
2021/04/19 11:07:35;;;;;;;13.95;12.63;;;;;;;20.22;41.62;102119.47;6281666;28;20599;-53
2021/04/19 11:11:15;;;;;;;13.55;12.25;;;;;;;20.82;40.27;102115.03;6274052;28;20231;-55
2021/04/19 11:14:37;;;;;;;15.45;13.95;;;;;;;20.42;40.89;102112.72;6264807;28;20239;-56
2021/04/19 11:17:59;;;;;;;14.93;13.60;;;;;;;21.07;40.70;102097.50;6269866;28;20259;-54
2021/04/19 11:21:30;;;;;;;14.80;13.40;;;;;;;21.42;39.82;102101.59;6274420;28;20660;-56
2021/04/19 11:24:51;;;;;;;12.10;10.93;;;;;;;20.75;38.16;102102.06;6272981;28;20234;-57
2021/04/19 11:28:20;;;;;;;12.57;11.48;;;;;;;21.05;38.71;102094.88;6276737;28;20232;-55
2021/04/19 11:31:44;;;;;;;10.57;9.68;;;;;;;21.62;38.45;102085.06;6272099;28;20239;-56
2021/04/19 11:35:06;;;;;;;12.18;11.07;;;;;;;21.81;38.22;102093.22;6267043;28;20226;-57
2021/04/19 11:38:28;;;;;;;12.85;11.77;;;;;;;21.36;37.52;102077.97;6264835;28;20223;-56
2021/04/19 11:41:51;;;;;;;10.43;9.45;;;;;;;22.51;36.71;102076.47;6262050;28;20318;-55
2021/04/19 11:45:21;;;;;;;11.50;10.60;;;;;;;23.22;34.98;102067.41;6268886;28;20231;-56
2021/04/19 11:48:44;;;;;;;11.07;10.18;;;;;;;25.00;32.14;102051.25;6263003;28;20234;-57
2021/04/19 11:52:05;;;;;;;10.18;9.27;;;;;;;26.28;30.50;102049.88;6273162;28;20222;-58
2021/04/19 11:55:26;;;;;;;11.10;9.98;;;;;;;27.13;27.46;102045.03;6260956;28;20238;-55
2021/04/19 11:58:49;;;;;;;10.90;9.95;;;;;;;26.11;28.60;102049.00;6259266;28;20240;-56
2021/04/19 12:02:10;;;;;;;9.00;8.23;;;;;;;27.37;26.90;102045.38;6258238;28;20247;-56
2021/04/19 12:05:31;;;;;;;8.65;7.95;;;;;;;28.72;24.52;102047.53;6252355;28;20227;-56
2021/04/19 12:08:52;;;;;;;8.68;7.88;;;;;;;28.78;24.07;102047.13;6258300;28;20231;-56
2021/04/19 12:12:14;;;;;;;8.68;7.75;;;;;;;28.92;23.48;102048.03;6248750;28;20226;-55
2021/04/19 12:15:35;;;;;;;8.95;8.02;;;;;;;28.22;23.80;102046.34;6259016;28;21493;-54
2021/04/19 12:18:55;;;;;;;7.03;6.53;;;;;;;29.65;22.90;102042.97;6252647;28;20235;-56
2021/04/19 12:22:16;;;;;;;7.60;6.95;;;;;;;30.56;21.56;102027.53;6255351;28;20228;-54
2021/04/19 12:25:37;;;;;;;7.07;6.57;;;;;;;30.97;20.81;102029.78;6260153;28;20683;-53
2021/04/19 12:28:59;;;;;;;8.10;6.65;;;;;;;28.78;22.42;102032.88;6260087;28;20322;-58
2021/04/19 12:32:19;;;;;;;6.07;5.57;;;;;;;30.78;20.42;102022.22;6258646;28;22486;-56
2021/04/19 12:35:40;;;;;;;5.90;5.50;;;;;;;30.55;20.87;102036.53;6253302;28;20680;-54
2021/04/19 12:39:03;;;;;;;4.85;4.45;;;;;;;31.75;19.24;102030.88;6260883;28;20227;-52
2021/04/19 12:42:25;;;;;;;5.32;4.93;;;;;;;30.52;19.82;102031.41;6256093;28;20224;-57
2021/04/19 12:45:46;;;;;;;5.63;5.22;;;;;;;31.63;19.45;102014.84;6249548;28;22608;-57
2021/04/19 12:49:07;;;;;;;5.40;4.95;;;;;;;32.61;17.83;102012.25;6251808;28;20246;-54
2021/04/19 12:52:27;;;;;;;4.57;4.18;;;;;;;32.86;17.57;102005.63;6257910;28;20227;-56
2021/04/19 12:55:48;;;;;;;5.38;4.88;;;;;;;33.57;16.46;102012.13;6259366;28;20235;-57
2021/04/19 12:59:16;;;;;;;5.60;5.00;;;;;;;32.44;17.56;102012.78;6255790;28;20231;-55
2021/04/19 13:02:37;;;;;;;5.82;5.32;;;;;;;32.09;17.70;102003.09;6249412;28;20247;-55
2021/04/19 13:05:57;;;;;;;7.93;6.50;;;;;;;29.69;20.24;102010.53;6250124;28;20759;-56
2021/04/19 13:09:18;;;;;;;8.27;6.07;;;;;;;28.60;22.03;102008.19;6255471;28;20516;-56
2021/04/19 13:12:39;;;;;;;7.30;6.60;;;;;;;30.61;20.12;101996.63;6248995;28;20933;-56
2021/04/19 13:16:00;;;;;;;7.68;7.03;;;;;;;32.03;19.08;102003.56;6249774;28;21974;-52
2021/04/19 13:19:21;;;;;;;7.22;6.47;;;;;;;31.42;19.36;101995.84;6262392;28;20231;-56
2021/04/19 13:22:41;;;;;;;8.25;7.47;;;;;;;30.67;20.49;101987.25;6262539;28;20242;-55
2021/04/19 13:26:02;;;;;;;8.98;8.05;;;;;;;30.84;19.78;101985.94;6257649;28;20342;-55
2021/04/19 13:29:22;;;;;;;8.02;7.22;;;;;;;31.05;20.63;101990.66;6259585;28;20239;-54
2021/04/19 13:32:44;;;;;;;10.18;8.32;;;;;;;29.47;21.91;101998.66;6255061;28;20228;-55
2021/04/19 13:36:05;;;;;;;7.97;7.28;;;;;;;27.29;25.16;101997.69;6258078;28;22543;-57
2021/04/19 13:39:26;;;;;;;8.25;7.55;;;;;;;28.00;24.18;101986.13;6253537;28;20631;-56
2021/04/19 13:42:47;;;;;;;9.63;8.73;;;;;;;28.54;23.45;101985.34;6262341;28;20235;-55
2021/04/19 13:46:07;;;;;;;7.63;7.03;;;;;;;30.67;21.01;101989.94;6268528;28;20239;-57
2021/04/19 13:49:29;;;;;;;9.65;8.57;;;;;;;30.58;21.16;101977.19;6263191;28;20693;-55
2021/04/19 13:52:49;;;;;;;9.68;8.88;;;;;;;30.36;21.38;101965.38;6266611;28;20223;-56
2021/04/19 13:56:10;;;;;;;9.13;8.32;;;;;;;30.42;21.92;101964.06;6266891;28;20334;-54
2021/04/19 13:59:30;;;;;;;8.15;7.25;;;;;;;27.00;25.77;101968.22;6267783;28;20598;-67
2021/04/19 14:02:52;;;;;;;10.15;7.90;;;;;;;24.28;29.08;101964.25;6265963;28;20250;-49
2021/04/19 14:06:16;;;;;;;10.63;7.75;;;;;;;26.27;25.97;101958.22;6269408;28;20244;-51
2021/04/19 14:09:36;;;;;;;9.55;8.18;;;;;;;27.62;24.76;101959.97;6264650;28;20348;-55
2021/04/19 14:12:57;;;;;;;8.93;8.02;;;;;;;25.65;26.86;101968.78;6265152;28;20223;-56
2021/04/19 14:16:17;;;;;;;9.50;7.97;;;;;;;25.32;27.60;101964.31;6278000;28;20935;-52
2021/04/19 14:19:38;;;;;;;7.85;7.07;;;;;;;23.69;30.30;101964.31;6271915;28;20239;-56
2021/04/19 14:22:59;;;;;;;10.02;6.15;;;;;;;23.39;30.27;101975.41;6267976;28;20224;-55
2021/04/19 14:26:20;;;;;;;7.50;6.80;;;;;;;23.85;29.07;101966.28;6267592;28;20268;-53
2021/04/19 14:29:40;;;;;;;7.30;6.00;;;;;;;25.04;27.75;101954.19;6278000;28;20254;-55
2021/04/19 14:33:01;;;;;;;9.82;7.07;;;;;;;25.04;26.99;101956.00;6282107;28;20223;-57
2021/04/19 14:36:21;;;;;;;6.60;5.72;;;;;;;24.71;28.26;101952.34;6282601;28;20231;-57
2021/04/19 14:39:43;;;;;;;7.97;6.63;;;;;;;24.28;28.42;101953.59;6282941;28;20318;-56
2021/04/19 14:43:03;;;;;;;5.90;5.30;;;;;;;24.62;27.96;101949.28;6277920;28;20299;-53
2021/04/19 14:46:24;;;;;;;11.82;7.03;;;;;;;24.42;27.50;101948.44;6268188;28;20243;-55
2021/04/19 14:49:44;;;;;;;7.38;6.55;;;;;;;24.53;26.54;101945.28;6267297;28;20681;-56
2021/04/19 14:53:04;;;;;;;8.30;7.50;;;;;;;24.78;27.26;101944.91;6270427;28;20228;-53
2021/04/19 14:56:26;;;;;;;6.00;5.40;;;;;;;24.69;26.74;101943.56;6266583;28;20243;-52
2021/04/19 14:59:46;;;;;;;6.55;4.75;;;;;;;24.33;26.30;101938.25;6256084;28;20228;-55
2021/04/19 15:03:07;;;;;;;7.00;5.18;;;;;;;24.09;26.28;101935.00;6263771;28;20231;-56
2021/04/19 15:06:27;;;;;;;6.03;5.25;;;;;;;23.80;26.16;101945.22;6255343;28;20224;-53
2021/04/19 15:09:48;;;;;;;8.25;4.30;;;;;;;24.13;25.92;101942.75;6263150;28;20302;-55
2021/04/19 15:13:09;;;;;;;6.03;4.90;;;;;;;23.57;25.66;101940.94;6285880;28;20235;-55
2021/04/19 15:16:30;;;;;;;6.13;3.63;;;;;;;23.08;25.26;101941.34;6266638;28;20723;-56
2021/04/19 15:19:50;;;;;;;4.65;3.70;;;;;;;23.47;24.42;101945.81;6277114;28;20227;-55
2021/04/19 15:23:13;;;;;;;8.38;3.85;;;;;;;22.57;25.82;101948.78;6268218;28;20231;-54
2021/04/19 15:26:34;;;;;;;7.00;4.07;;;;;;;22.73;25.77;101949.00;6277529;28;20227;-51
2021/04/19 15:29:56;;;;;;;6.57;3.60;;;;;;;22.60;25.82;101947.78;6268210;28;20311;-54
2021/04/19 15:33:17;;;;;;;7.25;4.35;;;;;;;22.92;25.89;101943.78;6281183;28;20348;-53